METAR AND TAF INFORMATION


LFLL 200500Z 36005KT 320V020 9999 -RA FEW040CB BKN056 18/17 Q1014 NOSIG
LFLL 200430Z 31005KT 9999 FEW040CB BKN056 17/16 Q1015 NOSIG
TAF LFLL 192300Z 2000/2106 VRB02KT 9999 SCT050 BKN100 TEMPO 2000/2006 SHRA SCT025TCU BKN040 PROB40 TEMPO 2000/2004 3000 TSRA BKN035 SCT050CB BECMG 2004/2007 36005KT TEMPO 2006/2010 BKN025 PROB30 TEMPO 2014/2017 SHRA

 AIRPORT MAP

 RUNWAY INFORMATION
Runway 18L Runway length 8760 ft Runway width 148 ft
Runway elevation 780 ft Runway displaced threshold 0 ft Runway heading 175
Runway 36R Runway length 8760 ft Runway width 148 ft
Runway elevation 821 ft Runway displaced threshold 0 ft Runway heading 355
Runway 18R Runway length 13124 ft Runway width 148 ft
Runway elevation 758 ft Runway displaced threshold 0 ft Runway heading 175
Runway 36L Runway length 13124 ft Runway width 148 ft
Runway elevation 813 ft Runway displaced threshold 0 ft Runway heading 355

 AIRPORT FREQUENCIES
Type A/D Name Lyon appro Frequency 136.075 MHZ
Type ATIS Name ATIS Frequency 126.175 MHZ
Type GND Name GND Frequency 121.825 MHZ
Type INFO Name INFO Frequency 135.2 MHZ
Type PFLT Name PREFLIGHT Frequency 121.7 MHZ
Type TWR Name TWR Frequency 120.45 MHZ

 AIRPORT NEAR NAVIGATION AIDS
Type VOR-DME Name Lyon/Saint Exupery Frequency 114750 KHZ